createdAt,value
2018-04-10T00:00:56.074Z,99825.94
2018-04-10T00:01:59.478Z,99821.59
2018-04-10T00:03:02.852Z,99819.95
2018-04-10T00:04:06.282Z,99823.55
2018-04-10T00:05:09.789Z,99826.41
2018-04-10T00:06:13.159Z,99829.59
2018-04-10T00:07:16.513Z,99828.05
2018-04-10T00:08:19.975Z,99838.44
2018-04-10T00:09:23.325Z,99830.48
2018-04-10T00:10:27.073Z,99828.84
2018-04-10T00:11:30.412Z,99832.95
2018-04-10T00:12:33.732Z,99833.97
2018-04-10T00:13:37.088Z,99839.45
2018-04-10T00:14:41.821Z,99840.96
2018-04-10T00:15:45.104Z,99834.43
2018-04-10T00:16:48.474Z,99828.27
2018-04-10T00:17:52.050Z,99834.64
2018-04-10T00:18:55.562Z,99834.22
2018-04-10T00:19:59.827Z,99836.98
2018-04-10T00:21:04.069Z,99835.73
2018-04-10T00:22:07.441Z,99839.45
2018-04-10T00:23:11.638Z,99839.95
2018-04-10T00:24:15.023Z,99839.21
2018-04-10T00:25:18.393Z,99838.50
2018-04-10T00:26:21.847Z,99840.76
2018-04-10T00:27:25.195Z,99836.41
2018-04-10T00:28:28.531Z,99837.83
2018-04-10T00:29:31.846Z,99838.34
2018-04-10T00:30:35.387Z,99843.40
2018-04-10T00:31:38.834Z,99840.39
2018-04-10T00:32:42.215Z,99836.03
2018-04-10T00:33:45.570Z,99842.85
2018-04-10T00:34:48.979Z,99843.78
2018-04-10T00:35:52.359Z,99841.69
2018-04-10T00:36:55.776Z,99845.38
2018-04-10T00:37:59.462Z,99843.61
2018-04-10T00:39:03.347Z,99847.25
2018-04-10T00:40:06.736Z,99846.41
2018-04-10T00:41:10.097Z,99848.77
2018-04-10T00:42:13.458Z,99845.33
2018-04-10T00:43:18.588Z,99844.91
2018-04-10T00:44:22.054Z,99846.88
2018-04-10T00:45:25.470Z,99849.05
2018-04-10T00:46:28.871Z,99850.90
2018-04-10T00:47:32.290Z,99847.88
2018-04-10T00:48:35.837Z,99848.30
2018-04-10T00:49:42.381Z,99844.48
2018-04-10T00:50:47.294Z,99847.25
2018-04-10T00:51:50.753Z,99847.76
2018-04-10T00:52:54.104Z,99848.68
2018-04-10T00:53:57.427Z,99848.68
2018-04-10T00:55:00.767Z,99846.50
2018-04-10T00:56:04.661Z,99850.11
2018-04-10T00:57:08.033Z,99852.78
2018-04-10T00:58:11.358Z,99854.63
2018-04-10T00:59:14.710Z,99858.65
2018-04-10T01:00:18.102Z,99854.13
2018-04-10T01:01:22.040Z,99859.48
2018-04-10T01:02:25.656Z,99859.81
2018-04-10T01:03:28.964Z,99862.41
2018-04-10T01:04:32.331Z,99860.95
2018-04-10T01:05:35.673Z,99861.70
2018-04-10T01:06:39.739Z,99865.31
2018-04-10T01:07:43.075Z,99855.42
2018-04-10T01:08:46.478Z,99863.37
2018-04-10T01:09:49.827Z,99869.99
2018-04-10T01:10:53.228Z,99867.70
2018-04-10T01:11:56.643Z,99865.44
2018-04-10T01:13:00.002Z,99873.89
2018-04-10T01:14:03.390Z,99862.76
2018-04-10T01:15:07.094Z,99868.11
2018-04-10T01:16:10.482Z,99861.83
2018-04-10T01:17:13.887Z,99865.34
2018-04-10T01:18:17.276Z,99863.59
2018-04-10T01:19:22.146Z,99863.67
2018-04-10T01:20:25.538Z,99856.98
2018-04-10T01:21:28.955Z,99860.61
2018-04-10T01:22:32.375Z,99856.05
2018-04-10T01:23:35.693Z,99855.55
2018-04-10T01:24:39.108Z,99853.38
2018-04-10T01:25:42.450Z,99855.25
2018-04-10T01:26:45.792Z,99853.49
2018-04-10T01:27:49.147Z,99858.52
2018-04-10T01:28:53.233Z,99855.00
2018-04-10T01:29:57.379Z,99859.73
2018-04-10T01:31:00.704Z,99863.51
2018-04-10T01:32:05.120Z,99863.20
2018-04-10T01:33:08.427Z,99860.37
2018-04-10T01:34:11.852Z,99857.27
2018-04-10T01:35:15.205Z,99861.07
2018-04-10T01:36:18.550Z,99853.73
2018-04-10T01:37:21.882Z,99857.01
2018-04-10T01:38:25.311Z,99856.77
2018-04-10T01:39:29.329Z,99855.63
2018-04-10T01:40:32.701Z,99861.91
2018-04-10T01:41:36.118Z,99854.00
2018-04-10T01:42:39.594Z,99854.00
2018-04-10T01:43:43.174Z,99851.02
2018-04-10T01:44:46.569Z,99854.63
2018-04-10T01:45:49.888Z,99854.30
2018-04-10T01:46:55.812Z,99847.38
2018-04-10T01:47:59.789Z,99850.14
2018-04-10T01:49:03.945Z,99849.81
2018-04-10T01:50:07.315Z,99857.94
2018-04-10T01:51:10.741Z,99855.79
2018-04-10T01:52:14.778Z,99854.63
2018-04-10T01:53:18.268Z,99856.97
2018-04-10T01:54:22.315Z,99853.88
2018-04-10T01:55:25.694Z,99852.64
2018-04-10T01:56:29.119Z,99854.99
2018-04-10T01:57:32.471Z,99854.16
2018-04-10T01:58:35.816Z,99854.66
2018-04-10T01:59:39.128Z,99851.68
2018-04-10T02:00:42.483Z,99856.20
2018-04-10T02:01:47.379Z,99855.87
2018-04-10T02:02:51.566Z,99859.97
2018-04-10T02:03:54.875Z,99860.89
2018-04-10T02:04:58.307Z,99862.77
2018-04-10T02:06:01.710Z,99862.85
2018-04-10T02:07:05.089Z,99860.34
2018-04-10T02:08:08.439Z,99863.44
2018-04-10T02:09:11.750Z,99861.77
2018-04-10T02:10:15.138Z,99859.62
2018-04-10T02:11:18.518Z,99857.95
2018-04-10T02:12:22.538Z,99855.36
2018-04-10T02:13:25.888Z,99851.95
2018-04-10T02:14:29.207Z,99854.22
2018-04-10T02:15:32.546Z,99849.87
2018-04-10T02:16:37.609Z,99849.45
2018-04-10T02:17:42.908Z,99853.25
2018-04-10T02:18:47.021Z,99854.25
2018-04-10T02:20:54.314Z,99858.77
2018-04-10T02:21:57.747Z,99854.42
2018-04-10T02:23:01.562Z,99857.52
2018-04-10T02:24:04.947Z,99861.23
2018-04-10T02:25:08.412Z,99858.55
2018-04-10T02:26:12.054Z,99858.64
2018-04-10T02:27:15.427Z,99859.98
2018-04-10T02:28:18.774Z,99851.95
2018-04-10T02:29:22.111Z,99855.63
2018-04-10T02:30:25.900Z,99846.88
2018-04-10T02:31:29.299Z,99851.81
2018-04-10T02:32:32.645Z,99857.67
2018-04-10T02:33:36.010Z,99859.02
2018-04-10T02:34:39.384Z,99858.67
2018-04-10T02:35:42.728Z,99856.92
2018-04-10T02:36:46.884Z,99858.34
2018-04-10T02:37:50.243Z,99859.88
2018-04-10T02:38:53.540Z,99860.80
2018-04-10T02:39:56.843Z,99863.48
2018-04-10T02:41:01.583Z,99869.42
2018-04-10T02:42:04.995Z,99868.20
2018-04-10T02:43:08.979Z,99869.12
2018-04-10T02:44:12.388Z,99867.03
2018-04-10T02:45:15.793Z,99869.29
2018-04-10T02:46:19.151Z,99870.63
2018-04-10T02:47:22.556Z,99868.45
2018-04-10T02:48:25.933Z,99867.11
2018-04-10T02:49:29.512Z,99866.81
2018-04-10T02:50:32.891Z,99871.13
2018-04-10T02:51:36.245Z,99874.42
2018-04-10T02:52:40.427Z,99869.48
2018-04-10T02:53:48.834Z,99870.91
2018-04-10T02:54:52.913Z,99872.42
2018-04-10T02:55:56.304Z,99869.73
2018-04-10T02:56:59.687Z,99868.31
2018-04-10T02:58:03.072Z,99861.20
2018-04-10T02:59:06.620Z,99868.31
2018-04-10T03:00:09.944Z,99870.08
2018-04-10T03:01:14.582Z,99867.40
2018-04-10T03:02:17.964Z,99862.96
2018-04-10T03:03:21.308Z,99863.37
2018-04-10T03:04:24.653Z,99869.16
2018-04-10T03:05:27.990Z,99864.22
2018-04-10T03:06:31.306Z,99863.72
2018-04-10T03:07:34.644Z,99858.36
2018-04-10T03:08:37.977Z,99861.45
2018-04-10T03:09:41.398Z,99864.64
2018-04-10T03:10:44.719Z,99859.78
2018-04-10T03:11:48.322Z,99862.04
2018-04-10T03:12:52.506Z,99862.96
2018-04-10T03:13:55.868Z,99861.70
2018-04-10T03:14:59.290Z,99861.70
2018-04-10T03:16:02.648Z,99862.74
2018-04-10T03:17:05.987Z,99860.56
2018-04-10T03:18:10.128Z,99870.86
2018-04-10T03:19:13.573Z,99864.75
2018-04-10T03:20:16.990Z,99865.76
2018-04-10T03:21:21.115Z,99865.88
2018-04-10T03:22:24.567Z,99867.30
2018-04-10T03:23:27.859Z,99863.03
2018-04-10T03:24:31.235Z,99865.82
2018-04-10T03:25:34.641Z,99862.30
2018-04-10T03:26:37.982Z,99861.55
2018-04-10T03:27:41.450Z,99868.33
2018-04-10T03:28:45.026Z,99860.08
2018-04-10T03:29:48.382Z,99863.76
2018-04-10T03:30:51.721Z,99862.92
2018-04-10T03:31:55.150Z,99869.23
2018-04-10T03:32:58.503Z,99863.13
2018-04-10T03:34:02.813Z,99865.96
2018-04-10T03:35:06.275Z,99860.73
2018-04-10T03:36:09.635Z,99862.48
2018-04-10T03:37:13.787Z,99864.74
2018-04-10T03:38:17.168Z,99867.58
2018-04-10T03:39:20.573Z,99870.77
2018-04-10T03:40:23.950Z,99870.34
2018-04-10T03:41:30.271Z,99867.86
2018-04-10T03:42:33.632Z,99860.84
2018-04-10T03:43:37.271Z,99870.29
2018-04-10T03:44:40.660Z,99875.22
2018-04-10T03:45:43.950Z,99882.03
2018-04-10T03:46:47.301Z,99878.44
2018-04-10T03:47:50.758Z,99877.68
2018-04-10T03:48:54.034Z,99879.52
2018-04-10T03:49:57.414Z,99878.68
2018-04-10T03:51:00.728Z,99885.88
2018-04-10T03:52:04.163Z,99883.39
2018-04-10T03:53:07.550Z,99881.55
2018-04-10T03:54:10.862Z,99878.97
2018-04-10T03:55:14.177Z,99879.05
2018-04-10T03:56:17.505Z,99877.79
2018-04-10T03:57:20.919Z,99885.81
2018-04-10T03:58:24.752Z,99890.75
2018-04-10T03:59:28.123Z,99890.36
2018-04-10T04:00:31.459Z,99889.95
2018-04-10T04:01:35.590Z,99889.95
2018-04-10T04:02:38.947Z,99893.05
2018-04-10T04:03:42.266Z,99896.22
2018-04-10T04:04:45.786Z,99893.05
2018-04-10T04:05:49.109Z,99895.30
2018-04-10T04:06:52.468Z,99893.43
2018-04-10T04:07:55.902Z,99891.70
2018-04-10T04:08:59.275Z,99896.11
2018-04-10T04:10:02.697Z,99895.19
2018-04-10T04:11:06.037Z,99892.01
2018-04-10T04:12:09.640Z,99893.34
2018-04-10T04:13:13.023Z,99889.33
2018-04-10T04:14:16.407Z,99884.81
2018-04-10T04:15:19.740Z,99886.57
2018-04-10T04:16:34.752Z,99889.25
2018-04-10T04:17:38.073Z,99884.17
2018-04-10T04:18:53.227Z,99881.92
2018-04-10T04:20:08.414Z,99882.09
2018-04-10T04:21:23.669Z,99884.13
2018-04-10T04:22:38.950Z,99878.02
2018-04-10T04:23:42.472Z,99880.36
2018-04-10T04:24:46.094Z,99879.35
2018-04-10T04:25:49.486Z,99882.36
2018-04-10T04:26:52.863Z,99881.86
2018-04-10T04:27:56.269Z,99883.09
2018-04-10T04:28:59.587Z,99877.73
2018-04-10T04:30:02.999Z,99885.77
2018-04-10T04:31:09.167Z,99884.95
2018-04-10T04:32:13.281Z,99885.13
2018-04-10T04:33:17.516Z,99891.81
2018-04-10T04:34:20.988Z,99886.55
2018-04-10T04:35:24.627Z,99888.80
2018-04-10T04:36:27.979Z,99889.30
2018-04-10T04:37:34.335Z,99885.70
2018-04-10T04:38:37.687Z,99890.84
2018-04-10T04:39:41.473Z,99885.06
2018-04-10T04:40:45.692Z,99884.65
2018-04-10T04:41:49.269Z,99891.76
2018-04-10T04:42:52.681Z,99886.41
2018-04-10T04:43:57.826Z,99885.06
2018-04-10T04:45:01.826Z,99886.06
2018-04-10T04:46:07.947Z,99886.48
2018-04-10T04:47:12.444Z,99886.98
2018-04-10T04:48:15.877Z,99887.52
2018-04-10T04:49:20.177Z,99889.66
2018-04-10T04:50:24.553Z,99882.97
2018-04-10T04:51:27.934Z,99883.09
2018-04-10T04:52:31.324Z,99891.92
2018-04-10T04:53:35.025Z,99892.34
2018-04-10T04:54:38.510Z,99894.09
2018-04-10T04:55:41.825Z,99890.58
2018-04-10T04:56:45.309Z,99901.28
2018-04-10T04:57:48.672Z,99893.67
2018-04-10T04:58:52.031Z,99897.69
2018-04-10T04:59:55.539Z,99896.77
2018-04-10T05:00:59.798Z,99898.02
2018-04-10T05:02:03.285Z,99891.42
2018-04-10T05:03:07.150Z,99891.42
2018-04-10T05:04:12.105Z,99889.66
2018-04-10T05:05:16.288Z,99889.66
2018-04-10T05:06:19.753Z,99892.45
2018-04-10T05:07:23.585Z,99893.25
2018-04-10T05:08:28.047Z,99893.67
2018-04-10T05:09:31.454Z,99894.94
2018-04-10T05:10:34.783Z,99896.69
2018-04-10T05:11:38.691Z,99894.02
2018-04-10T05:12:42.139Z,99900.63
2018-04-10T05:13:45.502Z,99899.36
2018-04-10T05:14:48.850Z,99903.72
2018-04-10T05:15:52.231Z,99908.23
2018-04-10T05:16:55.608Z,99906.81
2018-04-10T05:18:00.669Z,99917.02
2018-04-10T05:19:07.039Z,99908.98
2018-04-10T05:20:10.394Z,99909.37
2018-04-10T05:21:13.710Z,99909.37
2018-04-10T05:22:17.086Z,99912.38
2018-04-10T05:23:20.514Z,99911.88
2018-04-10T05:24:24.122Z,99907.78
2018-04-10T05:25:27.524Z,99913.86
2018-04-10T05:26:30.908Z,99905.41
2018-04-10T05:27:34.399Z,99911.52
2018-04-10T05:28:38.183Z,99913.70
2018-04-10T05:29:41.485Z,99909.59
2018-04-10T05:30:45.494Z,99912.58
2018-04-10T05:31:49.598Z,99920.45
2018-04-10T05:32:53.833Z,99919.95
2018-04-10T05:33:57.542Z,99916.77
2018-04-10T05:35:00.919Z,99915.31
2018-04-10T05:36:04.355Z,99917.74
2018-04-10T05:37:07.696Z,99918.88
2018-04-10T05:38:11.239Z,99928.09
2018-04-10T05:39:14.614Z,99925.63
2018-04-10T05:40:18.409Z,99926.30
2018-04-10T05:41:21.830Z,99932.80
2018-04-10T05:42:25.425Z,99926.36
2018-04-10T05:43:28.770Z,99931.10
2018-04-10T05:44:33.048Z,99929.91
2018-04-10T05:45:36.892Z,99932.91
2018-04-10T05:46:40.260Z,99938.52
2018-04-10T05:47:43.586Z,99935.23
2018-04-10T05:48:47.188Z,99935.06
2018-04-10T05:49:50.821Z,99933.22
2018-04-10T05:50:54.217Z,99936.54
2018-04-10T05:51:57.796Z,99937.38
2018-04-10T05:53:03.481Z,99938.63
2018-04-10T05:54:07.719Z,99943.57
2018-04-10T05:55:11.072Z,99944.91
2018-04-10T05:56:15.306Z,99943.07
2018-04-10T05:57:18.631Z,99954.50
2018-04-10T05:58:22.832Z,99954.42
2018-04-10T05:59:26.183Z,99953.00
2018-04-10T06:00:30.421Z,99955.17
2018-04-10T06:01:35.810Z,99954.14
2018-04-10T06:02:39.761Z,99951.80
2018-04-10T06:03:43.285Z,99948.62
2018-04-10T06:04:47.376Z,99953.05
2018-04-10T06:05:50.896Z,99953.77
2018-04-10T06:06:54.411Z,99959.13
2018-04-10T06:07:57.722Z,99955.23
2018-04-10T06:09:01.382Z,99949.45
2018-04-10T06:10:04.958Z,99950.80
2018-04-10T06:11:08.391Z,99952.94
2018-04-10T06:12:12.275Z,99949.88
2018-04-10T06:13:15.959Z,99951.21
2018-04-10T06:14:19.345Z,99953.47
2018-04-10T06:15:22.755Z,99961.92
2018-04-10T06:16:26.235Z,99957.06
2018-04-10T06:17:29.836Z,99962.42
2018-04-10T06:18:33.676Z,99964.98
2018-04-10T06:19:37.258Z,99970.26
2018-04-10T06:20:40.655Z,99960.72
2018-04-10T06:21:44.062Z,99961.78
2018-04-10T06:22:47.533Z,99966.05
2018-04-10T06:23:50.865Z,99970.37
2018-04-10T06:24:54.178Z,99974.80
2018-04-10T06:25:57.544Z,99976.56
2018-04-10T06:27:01.035Z,99978.66
2018-04-10T06:28:05.199Z,99981.64
2018-04-10T06:29:08.531Z,99979.30
2018-04-10T06:30:11.962Z,99980.14
2018-04-10T06:31:16.816Z,99976.95
2018-04-10T06:32:25.034Z,99983.88
2018-04-10T06:33:29.359Z,99989.23
2018-04-10T06:34:32.724Z,99983.70
2018-04-10T06:35:37.775Z,99985.27
2018-04-10T06:36:41.442Z,99987.28
2018-04-10T06:37:44.760Z,99987.08
2018-04-10T06:38:48.446Z,99991.66
2018-04-10T06:39:52.504Z,99984.28
2018-04-10T06:40:55.895Z,99995.98
2018-04-10T06:41:59.244Z,99990.42
2018-04-10T06:43:02.666Z,99996.87
2018-04-10T06:44:05.980Z,99994.49
2018-04-10T06:45:09.278Z,99990.72
2018-04-10T06:46:12.821Z,99991.36
2018-04-10T06:47:16.200Z,99990.66
2018-04-10T06:48:20.224Z,99994.97
2018-04-10T06:49:23.816Z,99999.73
2018-04-10T06:50:27.386Z,99999.03
2018-04-10T06:51:31.081Z,100000.70
2018-04-10T06:52:34.597Z,99989.29
2018-04-10T06:53:40.600Z,99995.28
2018-04-10T06:54:43.912Z,99997.88
2018-04-10T06:55:47.484Z,99998.12
2018-04-10T06:56:50.987Z,99996.09
2018-04-10T06:57:54.337Z,99998.60
2018-04-10T06:59:00.108Z,99995.38
2018-04-10T07:00:06.535Z,100000.66
2018-04-10T07:01:10.309Z,99998.81
2018-04-10T07:02:13.640Z,99999.99
2018-04-10T07:03:17.009Z,100006.07
2018-04-10T07:04:21.060Z,100003.72
2018-04-10T07:05:24.405Z,100000.42
2018-04-10T07:06:27.940Z,100001.59
2018-04-10T07:07:31.264Z,100007.59
2018-04-10T07:08:35.560Z,100000.64
2018-04-10T07:09:40.124Z,100000.77
2018-04-10T07:10:43.479Z,100001.23
2018-04-10T07:11:46.826Z,99996.34
2018-04-10T07:12:50.196Z,99997.02
2018-04-10T07:13:53.946Z,100001.52
2018-04-10T07:14:57.309Z,99995.69
2018-04-10T07:16:00.638Z,99994.61
2018-04-10T07:17:05.079Z,99996.24
2018-04-10T07:18:09.485Z,99998.27
2018-04-10T07:19:12.939Z,99996.88
2018-04-10T07:20:16.389Z,100000.66
2018-04-10T07:21:19.723Z,100008.16
2018-04-10T07:22:23.189Z,100013.36
2018-04-10T07:23:26.610Z,100018.77
2018-04-10T07:24:30.063Z,100019.22
2018-04-10T07:25:33.474Z,100021.02
2018-04-10T07:26:36.862Z,100022.36
2018-04-10T07:27:41.891Z,100026.42
2018-04-10T07:28:47.798Z,100033.50
2018-04-10T07:29:51.206Z,100034.05
2018-04-10T07:30:55.040Z,100036.44
2018-04-10T07:32:01.442Z,100036.14
2018-04-10T07:33:06.162Z,100039.66
2018-04-10T07:34:09.691Z,100030.52
2018-04-10T07:35:13.330Z,100037.95
2018-04-10T07:36:16.690Z,100037.35
2018-04-10T07:37:20.056Z,100040.87
2018-04-10T07:38:23.405Z,100032.82
2018-04-10T07:39:27.510Z,100030.05
2018-04-10T07:40:32.104Z,100036.47
2018-04-10T07:41:35.467Z,100033.07
2018-04-10T07:42:38.794Z,100038.39
2018-04-10T07:43:42.150Z,100036.87
2018-04-10T07:44:45.470Z,100042.70
2018-04-10T07:45:48.948Z,100033.18
2018-04-10T07:46:52.338Z,100038.05
2018-04-10T07:47:55.731Z,100035.77
2018-04-10T07:48:59.790Z,100039.09
2018-04-10T07:50:04.337Z,100038.91
2018-04-10T07:51:08.450Z,100041.18
2018-04-10T07:52:11.903Z,100039.97
2018-04-10T07:53:15.245Z,100044.83
2018-04-10T07:54:20.397Z,100047.61
2018-04-10T07:55:24.791Z,100045.84
2018-04-10T07:56:28.265Z,100047.61
2018-04-10T07:57:31.647Z,100047.72
2018-04-10T07:58:35.245Z,100051.21
2018-04-10T07:59:38.561Z,100053.09
2018-04-10T08:00:41.948Z,100060.23
2018-04-10T08:01:45.265Z,100063.42
2018-04-10T08:02:48.631Z,100066.52
2018-04-10T08:03:53.306Z,100070.64
2018-04-10T08:04:56.642Z,100067.45
2018-04-10T08:05:59.989Z,100071.77
2018-04-10T08:07:03.931Z,100078.73
2018-04-10T08:08:11.502Z,100070.59
2018-04-10T08:09:28.504Z,100073.16
2018-04-10T08:10:33.635Z,100076.47
2018-04-10T08:11:45.146Z,100077.52
2018-04-10T08:12:50.211Z,100066.98
2018-04-10T08:13:57.984Z,100077.37
2018-04-10T08:15:11.055Z,100074.39
2018-04-10T08:16:20.697Z,100071.41
2018-04-10T08:17:27.092Z,100066.08
2018-04-10T08:18:32.134Z,100068.63
2018-04-10T08:19:35.512Z,100059.97
2018-04-10T08:20:40.500Z,100060.53
2018-04-10T08:21:44.862Z,100060.90
2018-04-10T08:22:49.595Z,100055.47
2018-04-10T08:23:53.297Z,100055.92
2018-04-10T08:24:58.018Z,100067.06
2018-04-10T08:26:03.423Z,100060.87
2018-04-10T08:27:07.376Z,100063.59
2018-04-10T08:28:17.263Z,100069.84
2018-04-10T08:29:22.357Z,100073.90
2018-04-10T08:30:26.625Z,100073.92
2018-04-10T08:31:30.694Z,100078.80
2018-04-10T08:32:34.374Z,100073.44
2018-04-10T08:33:38.398Z,100076.79
2018-04-10T08:34:43.041Z,100079.59
2018-04-10T08:35:49.058Z,100080.13
2018-04-10T08:36:53.652Z,100082.13
2018-04-10T08:37:58.094Z,100086.70
2018-04-10T08:39:06.689Z,100077.49
2018-04-10T08:40:10.050Z,100078.33
2018-04-10T08:41:21.690Z,100086.40
2018-04-10T08:42:28.004Z,100080.91
2018-04-10T08:43:31.825Z,100074.69
2018-04-10T08:44:35.152Z,100082.55
2018-04-10T08:45:38.498Z,100086.08
2018-04-10T08:46:46.064Z,100084.55
2018-04-10T08:47:52.658Z,100084.64
2018-04-10T08:48:59.705Z,100087.02
2018-04-10T08:50:08.311Z,100092.13
2018-04-10T08:51:11.695Z,100092.67
2018-04-10T08:52:15.291Z,100088.15
2018-04-10T08:53:18.610Z,100090.45
2018-04-10T08:54:21.942Z,100090.89
2018-04-10T08:55:27.822Z,100088.64
2018-04-10T08:56:31.927Z,100090.52
2018-04-10T08:57:35.368Z,100090.96
2018-04-10T08:58:40.703Z,100086.11
2018-04-10T08:59:44.545Z,100089.84
2018-04-10T09:00:49.764Z,100089.12
2018-04-10T09:01:54.030Z,100086.58
2018-04-10T09:02:57.414Z,100089.88
2018-04-10T09:04:05.015Z,100088.56
2018-04-10T09:05:09.123Z,100084.02
2018-04-10T09:06:13.247Z,100075.72
2018-04-10T09:07:17.432Z,100084.48
2018-04-10T09:08:25.058Z,100079.94
2018-04-10T09:09:28.390Z,100076.41
2018-04-10T09:10:31.799Z,100074.14
2018-04-10T09:11:37.653Z,100086.55
2018-04-10T09:12:42.821Z,100077.54
2018-04-10T09:13:46.147Z,100077.03
2018-04-10T09:14:49.556Z,100082.23
2018-04-10T09:15:53.688Z,100083.36
2018-04-10T09:16:58.020Z,100083.27
2018-04-10T09:18:01.335Z,100075.10
2018-04-10T09:19:05.628Z,100080.48
2018-04-10T09:20:09.184Z,100082.85
2018-04-10T09:21:15.184Z,100079.14
2018-04-10T09:22:18.615Z,100076.86
2018-04-10T09:23:21.945Z,100077.28
2018-04-10T09:24:26.019Z,100084.02
2018-04-10T09:25:29.410Z,100083.89
2018-04-10T09:26:32.792Z,100082.55
2018-04-10T09:27:36.129Z,100083.28
2018-04-10T09:28:39.443Z,100079.06
2018-04-10T09:29:42.827Z,100083.40
2018-04-10T09:30:46.163Z,100080.11
2018-04-10T09:31:49.614Z,100084.66
2018-04-10T09:32:52.911Z,100079.69
2018-04-10T09:33:56.610Z,100079.69
2018-04-10T09:35:00.095Z,100081.03
2018-04-10T09:36:04.821Z,100078.16
2018-04-10T09:37:08.140Z,100083.00
2018-04-10T09:38:11.442Z,100076.17
2018-04-10T09:39:14.786Z,100078.78
2018-04-10T09:40:18.153Z,100080.63
2018-04-10T09:41:21.504Z,100078.36
2018-04-10T09:42:24.902Z,100078.87
2018-04-10T09:43:28.222Z,100082.39
2018-04-10T09:44:31.601Z,100081.05
2018-04-10T09:45:34.981Z,100081.47
2018-04-10T09:46:38.324Z,100084.91
2018-04-10T09:47:41.653Z,100089.66
2018-04-10T09:48:45.005Z,100084.09
2018-04-10T09:49:48.314Z,100089.58
2018-04-10T09:50:51.695Z,100092.05
2018-04-10T09:51:55.029Z,100092.29
2018-04-10T09:52:58.462Z,100089.92
2018-04-10T09:54:01.767Z,100086.50
2018-04-10T09:55:05.410Z,100089.20
2018-04-10T09:56:08.781Z,100086.32
2018-04-10T09:57:12.176Z,100086.10
2018-04-10T09:58:15.498Z,100087.77
2018-04-10T09:59:18.851Z,100083.42
2018-04-10T10:00:28.564Z,100084.05
2018-04-10T10:01:31.878Z,100088.83
2018-04-10T10:02:35.680Z,100092.46
2018-04-10T10:03:38.999Z,100095.90
2018-04-10T10:04:43.221Z,100094.24
2018-04-10T10:05:46.618Z,100090.41
2018-04-10T10:06:51.423Z,100090.94
2018-04-10T10:07:54.810Z,100084.09
2018-04-10T10:08:58.151Z,100094.16
2018-04-10T10:10:01.535Z,100088.05
2018-04-10T10:11:04.935Z,100086.52
2018-04-10T10:12:08.309Z,100081.23
2018-04-10T10:13:11.654Z,100085.89
2018-04-10T10:14:15.027Z,100079.98
2018-04-10T10:15:18.434Z,100086.03
2018-04-10T10:16:21.811Z,100088.50
2018-04-10T10:17:25.170Z,100088.31
2018-04-10T10:18:28.507Z,100093.39
2018-04-10T10:19:31.908Z,100096.09
2018-04-10T10:20:35.285Z,100094.85
2018-04-10T10:21:38.606Z,100093.19
2018-04-10T10:22:41.964Z,100091.05
2018-04-10T10:23:46.065Z,100093.86
2018-04-10T10:24:49.396Z,100088.56
2018-04-10T10:25:52.778Z,100089.63
2018-04-10T10:26:56.121Z,100085.31
2018-04-10T10:27:59.511Z,100086.95
2018-04-10T10:29:03.288Z,100084.99
2018-04-10T10:30:06.641Z,100087.88
2018-04-10T10:31:10.066Z,100086.77
2018-04-10T10:32:13.379Z,100084.17
2018-04-10T10:33:16.760Z,100084.82
2018-04-10T10:34:20.087Z,100081.80
2018-04-10T10:35:23.427Z,100082.84
2018-04-10T10:36:26.772Z,100083.87
2018-04-10T10:37:30.136Z,100086.80
2018-04-10T10:38:33.490Z,100087.12
2018-04-10T10:39:36.832Z,100085.13
2018-04-10T10:40:40.190Z,100089.50
2018-04-10T10:41:43.550Z,100081.60
2018-04-10T10:42:46.928Z,100088.16
2018-04-10T10:43:50.294Z,100085.56
2018-04-10T10:44:53.644Z,100087.13
2018-04-10T10:45:57.000Z,100088.48
2018-04-10T10:47:00.313Z,100092.63
2018-04-10T10:48:03.777Z,100087.84
2018-04-10T10:49:07.342Z,100093.56
2018-04-10T10:50:10.999Z,100087.23
2018-04-10T10:51:15.077Z,100098.64
2018-04-10T10:52:18.415Z,100090.36
2018-04-10T10:53:21.878Z,100090.55
2018-04-10T10:54:25.226Z,100087.15
2018-04-10T10:55:28.602Z,100087.34
2018-04-10T10:56:31.916Z,100092.00
2018-04-10T10:57:35.278Z,100083.72
2018-04-10T10:58:38.578Z,100076.05
2018-04-10T10:59:41.943Z,100075.02
2018-04-10T11:00:45.320Z,100077.58
2018-04-10T11:01:48.678Z,100075.53
2018-04-10T11:02:52.014Z,100078.09
2018-04-10T11:03:55.365Z,100076.66
2018-04-10T11:04:58.726Z,100076.46
2018-04-10T11:06:02.226Z,100073.02
2018-04-10T11:07:05.561Z,100079.35
2018-04-10T11:08:08.879Z,100081.22
2018-04-10T11:09:12.267Z,100075.40
2018-04-10T11:10:15.678Z,100076.23
2018-04-10T11:11:19.055Z,100080.31
2018-04-10T11:12:22.423Z,100074.49
2018-04-10T11:13:25.851Z,100076.91
2018-04-10T11:14:29.215Z,100073.46
2018-04-10T11:15:32.607Z,100074.61
2018-04-10T11:16:35.922Z,100072.11
2018-04-10T11:17:39.291Z,100076.98
2018-04-10T11:18:42.635Z,100071.37
2018-04-10T11:19:46.213Z,100069.82
2018-04-10T11:20:49.712Z,100071.36
2018-04-10T11:21:53.070Z,100069.72
2018-04-10T11:22:56.502Z,100075.21
2018-04-10T11:23:59.854Z,100069.48
2018-04-10T11:25:03.202Z,100070.95
2018-04-10T11:26:06.814Z,100071.05
2018-04-10T11:27:10.170Z,100072.08
2018-04-10T11:28:13.514Z,100073.94
2018-04-10T11:29:16.875Z,100067.59
2018-04-10T11:30:20.262Z,100067.17
2018-04-10T11:31:23.612Z,100065.62
2018-04-10T11:32:27.025Z,100067.58
2018-04-10T11:33:30.396Z,100067.48
2018-04-10T11:34:33.943Z,100069.56
2018-04-10T11:35:37.275Z,100069.15
2018-04-10T11:36:40.728Z,100068.83
2018-04-10T11:37:44.031Z,100069.66
2018-04-10T11:38:47.354Z,100068.22
2018-04-10T11:39:50.709Z,100073.29
2018-04-10T11:40:54.036Z,100071.84
2018-04-10T11:41:57.379Z,100065.17
2018-04-10T11:43:00.710Z,100070.35
2018-04-10T11:44:04.111Z,100068.48
2018-04-10T11:45:07.474Z,100069.12
2018-04-10T11:46:10.815Z,100068.38
2018-04-10T11:47:14.195Z,100065.44
2018-04-10T11:48:17.517Z,100060.78
2018-04-10T11:49:20.857Z,100058.68
2018-04-10T11:50:24.193Z,100060.56
2018-04-10T11:51:27.516Z,100058.38
2018-04-10T11:52:30.925Z,100055.75
2018-04-10T11:53:34.299Z,100056.26
2018-04-10T11:54:37.652Z,100065.00
2018-04-10T11:55:40.982Z,100060.30
2018-04-10T11:56:44.323Z,100054.31
2018-04-10T11:57:47.692Z,100054.21
2018-04-10T11:58:51.029Z,100053.24
2018-04-10T11:59:54.327Z,100053.05
2018-04-10T12:00:57.667Z,100048.80
2018-04-10T12:02:01.045Z,100049.91
2018-04-10T12:03:04.379Z,100056.75
2018-04-10T12:04:07.738Z,100050.31
2018-04-10T12:05:11.102Z,100053.20
2018-04-10T12:06:14.421Z,100055.19
2018-04-10T12:07:17.760Z,100052.25
2018-04-10T12:08:21.153Z,100048.00
2018-04-10T12:09:24.496Z,100048.83
2018-04-10T12:10:27.938Z,100048.59
2018-04-10T12:11:31.274Z,100041.84
2018-04-10T12:12:34.742Z,100037.27
2018-04-10T12:13:38.076Z,100038.42
2018-04-10T12:14:41.468Z,100038.42
2018-04-10T12:15:45.186Z,100040.61
2018-04-10T12:16:48.510Z,100037.77
2018-04-10T12:17:51.893Z,100044.84
2018-04-10T12:18:55.350Z,100042.88
2018-04-10T12:19:58.688Z,100043.16
2018-04-10T12:21:02.062Z,100046.50
2018-04-10T12:22:05.400Z,100042.72